createdAt,value
2023-03-22T00:01:34.736Z,11.97
2023-03-22T00:04:02.533Z,11.91
2023-03-22T00:06:30.377Z,11.77
2023-03-22T00:08:58.200Z,11.89
2023-03-22T00:11:28.085Z,11.81
2023-03-22T00:13:56.308Z,11.75
2023-03-22T00:16:24.277Z,11.80
2023-03-22T00:18:52.403Z,11.73
2023-03-22T00:21:21.907Z,11.72
2023-03-22T00:23:49.686Z,11.56
2023-03-22T00:26:17.585Z,11.64
2023-03-22T00:28:46.809Z,11.65
2023-03-22T00:31:14.696Z,11.64
2023-03-22T00:33:43.814Z,11.61
2023-03-22T00:36:13.750Z,11.62
2023-03-22T00:38:43.410Z,11.60
2023-03-22T00:41:16.311Z,11.63
2023-03-22T00:43:46.788Z,11.54
2023-03-22T00:46:16.207Z,11.67
2023-03-22T00:48:45.033Z,11.66
2023-03-22T00:51:13.660Z,11.56
2023-03-22T00:53:43.671Z,11.49
2023-03-22T00:56:15.637Z,11.76
2023-03-22T00:58:44.050Z,11.56
2023-03-22T01:01:14.528Z,11.50
2023-03-22T01:03:44.166Z,11.58
2023-03-22T01:06:12.608Z,11.68
2023-03-22T01:08:41.497Z,11.69
2023-03-22T01:11:11.141Z,11.73
2023-03-22T01:13:41.752Z,11.78
2023-03-22T01:16:11.564Z,11.86
2023-03-22T01:18:40.893Z,11.77
2023-03-22T01:21:09.522Z,11.89
2023-03-22T01:23:37.770Z,11.81
2023-03-22T01:26:06.584Z,11.80
2023-03-22T01:28:34.393Z,11.88
2023-03-22T01:31:04.236Z,11.80
2023-03-22T01:33:32.547Z,11.74
2023-03-22T01:36:01.792Z,11.89
2023-03-22T01:38:29.725Z,11.80
2023-03-22T01:40:58.158Z,11.76
2023-03-22T01:43:25.897Z,11.72
2023-03-22T01:45:54.605Z,11.91
2023-03-22T01:48:28.930Z,11.90
2023-03-22T01:51:08.826Z,11.95
2023-03-22T01:53:42.539Z,11.95
2023-03-22T01:56:13.050Z,11.86
2023-03-22T01:58:43.091Z,11.87
2023-03-22T02:01:12.706Z,12.00
2023-03-22T02:03:49.511Z,12.14
2023-03-22T02:06:19.469Z,11.84
2023-03-22T02:08:47.633Z,12.04
2023-03-22T02:11:21.008Z,11.98
2023-03-22T02:14:09.482Z,11.96
2023-03-22T02:16:55.707Z,12.01
2023-03-22T02:20:10.402Z,11.77
2023-03-22T02:23:16.727Z,11.54
2023-03-22T02:26:32.515Z,11.76
2023-03-22T02:29:12.351Z,11.73
2023-03-22T02:32:04.052Z,11.58
2023-03-22T02:35:05.405Z,11.73
2023-03-22T02:38:22.999Z,11.51
2023-03-22T02:41:06.226Z,11.54
2023-03-22T02:43:38.677Z,11.68
2023-03-22T02:46:12.896Z,11.79
2023-03-22T02:48:51.593Z,11.80
2023-03-22T02:51:26.786Z,11.80
2023-03-22T02:54:03.738Z,11.78
2023-03-22T02:56:41.483Z,12.01
2023-03-22T02:59:13.210Z,11.75
2023-03-22T03:01:48.441Z,11.80
2023-03-22T03:04:22.896Z,11.76
2023-03-22T03:06:55.153Z,11.93
2023-03-22T03:09:25.455Z,11.81
2023-03-22T03:11:55.436Z,12.09
2023-03-22T03:14:26.718Z,11.85
2023-03-22T03:17:17.140Z,11.86
2023-03-22T03:20:00.430Z,11.77
2023-03-22T03:22:43.747Z,11.83
2023-03-22T03:25:27.068Z,11.74
2023-03-22T03:28:03.131Z,11.62
2023-03-22T03:30:40.735Z,11.59
2023-03-22T03:33:17.636Z,11.43
2023-03-22T03:35:51.841Z,11.89
2023-03-22T03:38:26.309Z,11.52
2023-03-22T03:41:00.107Z,11.68
2023-03-22T03:43:29.436Z,11.65
2023-03-22T03:45:57.999Z,11.91
2023-03-22T03:48:30.132Z,11.71
2023-03-22T03:51:01.013Z,11.74
2023-03-22T03:53:29.482Z,11.75
2023-03-22T03:55:57.693Z,11.55
2023-03-22T03:58:25.566Z,11.81
2023-03-22T04:00:54.713Z,11.76
2023-03-22T04:03:22.560Z,11.84
2023-03-22T04:05:50.468Z,11.82
2023-03-22T04:08:18.309Z,11.95
2023-03-22T04:10:51.726Z,12.03
2023-03-22T04:13:21.432Z,12.01
2023-03-22T04:15:53.076Z,11.85
2023-03-22T04:18:22.403Z,11.94
2023-03-22T04:20:53.402Z,12.05
2023-03-22T04:23:23.228Z,11.91
2023-03-22T04:25:51.093Z,12.07
2023-03-22T04:28:19.841Z,12.02
2023-03-22T04:30:51.869Z,11.93
2023-03-22T04:33:19.985Z,11.93
2023-03-22T04:35:49.995Z,11.94
2023-03-22T04:38:18.313Z,11.84
2023-03-22T04:40:46.701Z,11.94
2023-03-22T04:43:15.749Z,12.08
2023-03-22T04:45:43.888Z,11.96
2023-03-22T04:48:11.724Z,11.94
2023-03-22T04:50:41.080Z,11.87
2023-03-22T04:53:12.340Z,12.01
2023-03-22T04:55:40.230Z,11.98
2023-03-22T04:58:08.086Z,12.05
2023-03-22T05:00:37.799Z,11.91
2023-03-22T05:03:05.906Z,12.02
2023-03-22T05:05:33.801Z,12.01
2023-03-22T05:08:01.648Z,12.09
2023-03-22T05:10:31.053Z,11.89
2023-03-22T05:12:58.887Z,11.94
2023-03-22T05:15:26.794Z,11.82
2023-03-22T05:17:55.635Z,11.97
2023-03-22T05:20:23.530Z,11.69
2023-03-22T05:22:51.464Z,11.88
2023-03-22T05:25:19.604Z,11.78
2023-03-22T05:27:50.197Z,11.68
2023-03-22T05:30:18.431Z,11.73
2023-03-22T05:32:47.410Z,11.76
2023-03-22T05:35:15.218Z,11.67
2023-03-22T05:37:43.014Z,11.70
2023-03-22T05:40:11.433Z,11.69
2023-03-22T05:42:39.318Z,11.47
2023-03-22T05:45:11.103Z,11.66
2023-03-22T05:47:39.490Z,11.75
2023-03-22T05:50:12.460Z,11.73
2023-03-22T05:52:40.800Z,11.79
2023-03-22T05:55:09.350Z,11.76
2023-03-22T05:57:37.141Z,11.51
2023-03-22T06:00:11.082Z,11.66
2023-03-22T06:02:40.408Z,11.71
2023-03-22T06:05:10.897Z,11.66
2023-03-22T06:07:38.964Z,11.59
2023-03-22T06:10:10.679Z,11.67
2023-03-22T06:12:38.589Z,11.63
2023-03-22T06:15:08.327Z,11.71
2023-03-22T06:17:36.482Z,11.91
2023-03-22T06:20:10.172Z,11.70
2023-03-22T06:22:38.483Z,11.77
2023-03-22T06:25:10.955Z,11.75
2023-03-22T06:27:39.289Z,11.76
2023-03-22T06:30:09.342Z,11.71
2023-03-22T06:32:37.130Z,11.65
2023-03-22T06:35:07.784Z,11.81
2023-03-22T06:37:35.638Z,11.81
2023-03-22T06:40:03.639Z,11.64
2023-03-22T06:42:31.728Z,11.66
2023-03-22T06:44:59.573Z,11.63
2023-03-22T06:47:27.838Z,11.86
2023-03-22T06:49:55.782Z,11.67
2023-03-22T06:52:25.018Z,11.78
2023-03-22T06:55:00.520Z,12.04
2023-03-22T06:57:28.392Z,12.69
2023-03-22T06:59:56.265Z,12.99
2023-03-22T07:02:24.142Z,13.49
2023-03-22T07:04:52.003Z,13.86
2023-03-22T07:07:19.883Z,14.21
2023-03-22T07:09:49.934Z,14.23
2023-03-22T07:12:18.713Z,14.35
2023-03-22T07:14:46.776Z,14.13
2023-03-22T07:17:15.036Z,14.58
2023-03-22T07:19:43.286Z,14.77
2023-03-22T07:22:11.153Z,14.40
2023-03-22T07:24:50.342Z,14.05
2023-03-22T07:27:25.209Z,13.67
2023-03-22T07:29:53.154Z,13.80
2023-03-22T07:32:21.266Z,13.72
2023-03-22T07:34:49.240Z,13.54
2023-03-22T07:37:17.139Z,13.23
2023-03-22T07:39:45.083Z,13.41
2023-03-22T07:42:12.930Z,13.42
2023-03-22T07:44:42.357Z,13.65
2023-03-22T07:47:10.292Z,14.17
2023-03-22T07:49:38.435Z,14.21
2023-03-22T07:52:06.541Z,13.63
2023-03-22T07:54:34.782Z,13.77
2023-03-22T07:57:02.956Z,13.23
2023-03-22T07:59:31.273Z,13.77
2023-03-22T08:02:00.834Z,13.73
2023-03-22T08:04:28.869Z,13.72
2023-03-22T08:06:58.566Z,13.59
2023-03-22T08:09:26.677Z,13.51
2023-03-22T08:11:54.736Z,13.21
2023-03-22T08:14:35.450Z,13.33
2023-03-22T08:17:06.013Z,13.18
2023-03-22T08:19:34.323Z,13.15
2023-03-22T08:22:02.544Z,13.05
2023-03-22T08:24:30.407Z,13.14
2023-03-22T08:26:58.214Z,13.06
2023-03-22T08:29:26.115Z,12.69
2023-03-22T08:31:54.107Z,13.01
2023-03-22T08:34:23.302Z,13.11
2023-03-22T08:36:51.140Z,13.06
2023-03-22T08:39:19.024Z,13.27
2023-03-22T08:41:46.799Z,13.23
2023-03-22T08:44:14.672Z,13.33
2023-03-22T08:46:43.912Z,13.08
2023-03-22T08:49:11.824Z,13.12
2023-03-22T08:51:41.372Z,13.04
2023-03-22T08:54:09.489Z,13.23
2023-03-22T08:56:38.461Z,13.10
2023-03-22T08:59:06.735Z,13.17
2023-03-22T09:01:35.193Z,13.48
2023-03-22T09:04:03.905Z,13.55
2023-03-22T09:06:32.331Z,13.44
2023-03-22T09:09:03.713Z,13.74
2023-03-22T09:11:31.573Z,13.47
2023-03-22T09:13:59.375Z,13.62
2023-03-22T09:16:27.208Z,13.74
2023-03-22T09:18:55.076Z,13.34
2023-03-22T09:21:23.030Z,13.42
2023-03-22T09:23:50.980Z,13.68
2023-03-22T09:26:22.781Z,13.82
2023-03-22T09:28:51.317Z,13.98
2023-03-22T09:31:20.695Z,14.08
2023-03-22T09:33:49.131Z,14.37
2023-03-22T09:36:17.714Z,14.48
2023-03-22T09:38:46.584Z,14.48
2023-03-22T09:41:23.120Z,14.14
2023-03-22T09:43:54.492Z,14.02
2023-03-22T09:46:31.788Z,14.04
2023-03-22T09:49:03.024Z,13.99
2023-03-22T09:51:41.536Z,14.03
2023-03-22T09:54:18.498Z,13.69
2023-03-22T09:56:56.369Z,13.88
2023-03-22T09:59:34.015Z,14.01
2023-03-22T10:02:16.126Z,13.79
2023-03-22T10:04:59.008Z,13.55
2023-03-22T10:07:35.635Z,13.50
2023-03-22T10:10:10.731Z,13.54
2023-03-22T10:12:47.398Z,13.66
2023-03-22T10:15:20.265Z,13.58
2023-03-22T10:17:56.144Z,13.64
2023-03-22T10:20:40.549Z,13.58
2023-03-22T10:23:17.738Z,13.62
2023-03-22T10:25:45.800Z,13.76
2023-03-22T10:28:23.494Z,13.63
2023-03-22T10:30:56.475Z,13.58
2023-03-22T10:33:36.254Z,13.63
2023-03-22T10:36:07.214Z,13.39
2023-03-22T10:38:48.713Z,13.09
2023-03-22T10:41:21.992Z,13.15
2023-03-22T10:43:56.766Z,12.95
2023-03-22T10:46:31.808Z,13.03
2023-03-22T10:49:03.434Z,12.95
2023-03-22T10:51:40.953Z,12.89
2023-03-22T10:54:16.198Z,12.71
2023-03-22T10:56:45.910Z,12.62
2023-03-22T10:59:47.323Z,12.47
2023-03-22T11:02:20.929Z,12.56
2023-03-22T11:04:51.139Z,12.62
2023-03-22T11:07:30.900Z,12.44
2023-03-22T11:10:21.742Z,12.37
2023-03-22T11:12:54.002Z,12.73
2023-03-22T11:15:29.076Z,12.49
2023-03-22T11:18:09.161Z,12.56
2023-03-22T11:20:37.157Z,12.66
2023-03-22T11:23:06.950Z,12.58
2023-03-22T11:25:39.005Z,12.71
2023-03-22T11:28:18.904Z,12.87
2023-03-22T11:31:07.142Z,12.67
2023-03-22T11:33:36.801Z,12.98
2023-03-22T11:36:17.272Z,12.83
2023-03-22T11:38:47.262Z,12.85
2023-03-22T11:41:24.603Z,12.83
2023-03-22T11:43:56.746Z,12.93
2023-03-22T11:46:26.690Z,13.03
2023-03-22T11:49:01.337Z,12.86
2023-03-22T11:51:35.043Z,12.88
2023-03-22T11:54:11.999Z,12.90
2023-03-22T11:56:50.879Z,12.91
2023-03-22T11:59:25.744Z,13.09
2023-03-22T12:02:06.122Z,12.94
2023-03-22T12:04:41.303Z,13.12
2023-03-22T12:07:17.875Z,13.02
2023-03-22T12:09:54.769Z,12.92
2023-03-22T12:12:29.845Z,12.99
2023-03-22T12:15:06.473Z,12.98
2023-03-22T12:17:39.293Z,12.79
2023-03-22T12:20:21.220Z,12.76
2023-03-22T12:22:54.248Z,12.64
2023-03-22T12:25:28.222Z,12.91
2023-03-22T12:28:02.199Z,12.71
2023-03-22T12:30:38.616Z,12.82
2023-03-22T12:33:18.737Z,12.74
2023-03-22T12:35:48.716Z,12.87
2023-03-22T12:38:30.410Z,12.73
2023-03-22T12:41:04.261Z,12.89
2023-03-22T12:43:51.862Z,12.97
2023-03-22T12:46:25.174Z,13.08
2023-03-22T12:49:02.014Z,12.82
2023-03-22T12:51:30.009Z,12.93
2023-03-22T12:54:00.605Z,12.99
2023-03-22T12:56:37.771Z,12.88
2023-03-22T12:59:13.948Z,12.91
2023-03-22T13:01:52.431Z,12.92
2023-03-22T13:04:53.277Z,12.87
2023-03-22T13:07:52.580Z,12.91
2023-03-22T13:10:48.588Z,12.90
2023-03-22T13:13:34.029Z,12.74
2023-03-22T13:16:16.829Z,12.66
2023-03-22T13:19:03.261Z,12.70
2023-03-22T13:21:35.687Z,12.78
2023-03-22T13:24:23.332Z,12.84
2023-03-22T13:26:53.741Z,12.91
2023-03-22T13:29:25.418Z,12.97
2023-03-22T13:32:00.358Z,12.80
2023-03-22T13:34:38.654Z,12.82
2023-03-22T13:37:30.247Z,12.97
2023-03-22T13:40:02.239Z,12.79
2023-03-22T13:42:37.515Z,12.81
2023-03-22T13:45:11.066Z,12.84
2023-03-22T13:47:46.369Z,12.72
2023-03-22T13:50:23.348Z,12.81
2023-03-22T13:53:03.303Z,12.81
2023-03-22T13:55:48.221Z,12.75
2023-03-22T13:58:37.639Z,12.74
2023-03-22T14:01:09.091Z,12.62
2023-03-22T14:03:43.177Z,12.56
2023-03-22T14:06:20.236Z,12.57
2023-03-22T14:08:58.334Z,12.71
2023-03-22T14:11:31.389Z,12.67
2023-03-22T14:14:07.731Z,12.51
2023-03-22T14:16:42.630Z,12.55
2023-03-22T14:19:19.624Z,12.37
